Terminal Aerodrome Forecast
Issued by NWS Billings, MT

Home | Current Version | Previous Version | Text Only | Print | Product List | Glossary On
Versions: 1 2 3 4 5 6 7 8 9 10 11 12 13 14 15 16 17 18 19 20 21 22 23 24 25 26 27 28 29 30 31 32 33 34 35
722
FTUS45 KBYZ 080058 AAA
TAFBIL
TAF AMD
KBIL 080058Z 0801/0824 VRB06KT P6SM SCT070 BKN250
     FM081000 24010KT P6SM SCT100
     FM082100 27015KT P6SM FEW070 SCT200=

USA.gov is the U.S. government's official web portal to all federal, state and local government web resources and services.